sensor_id;sensor_type;location;lat;lon;timestamp;P1;durP1;ratioP1;P2;durP2;ratioP2
19560;SDS011;9927;47.792;10.616;2023-02-19T04:05:09;5.38;;;4.97;;
19560;SDS011;9927;47.792;10.616;2023-02-19T04:07:45;5.60;;;5.20;;
19560;SDS011;9927;47.792;10.616;2023-02-19T04:10:16;5.50;;;5.10;;
19560;SDS011;9927;47.792;10.616;2023-02-19T04:12:45;5.70;;;5.30;;
19560;SDS011;9927;47.792;10.616;2023-02-19T04:15:18;5.53;;;5.13;;
19560;SDS011;9927;47.792;10.616;2023-02-19T04:17:52;5.30;;;5.00;;
19560;SDS011;9927;47.792;10.616;2023-02-19T04:20:26;4.90;;;4.60;;
19560;SDS011;9927;47.792;10.616;2023-02-19T04:22:57;4.80;;;4.50;;
19560;SDS011;9927;47.792;10.616;2023-02-19T04:25:25;4.72;;;4.45;;
19560;SDS011;9927;47.792;10.616;2023-02-19T04:27:54;5.23;;;4.83;;
19560;SDS011;9927;47.792;10.616;2023-02-19T04:30:22;4.47;;;4.28;;
19560;SDS011;9927;47.792;10.616;2023-02-19T04:32:49;10.05;;;4.53;;
19560;SDS011;9927;47.792;10.616;2023-02-19T04:35:16;8.18;;;4.60;;
19560;SDS011;9927;47.792;10.616;2023-02-19T04:37:43;4.55;;;4.35;;
19560;SDS011;9927;47.792;10.616;2023-02-19T04:40:10;5.20;;;4.90;;
19560;SDS011;9927;47.792;10.616;2023-02-19T04:42:37;5.40;;;4.95;;
19560;SDS011;9927;47.792;10.616;2023-02-19T04:45:05;5.30;;;4.93;;
19560;SDS011;9927;47.792;10.616;2023-02-19T04:47:32;4.68;;;4.38;;
19560;SDS011;9927;47.792;10.616;2023-02-19T04:49:59;5.60;;;5.10;;
19560;SDS011;9927;47.792;10.616;2023-02-19T04:52:27;5.30;;;4.90;;
19560;SDS011;9927;47.792;10.616;2023-02-19T04:54:54;5.20;;;4.80;;
19560;SDS011;9927;47.792;10.616;2023-02-19T04:57:21;5.03;;;4.72;;
19560;SDS011;9927;47.792;10.616;2023-02-19T04:59:48;5.10;;;4.80;;
19560;SDS011;9927;47.792;10.616;2023-02-19T05:02:15;5.40;;;5.00;;
19560;SDS011;9927;47.792;10.616;2023-02-19T05:04:43;4.70;;;4.40;;
19560;SDS011;9927;47.792;10.616;2023-02-19T05:07:10;5.28;;;4.60;;
19560;SDS011;9927;47.792;10.616;2023-02-19T05:09:37;5.13;;;4.70;;
19560;SDS011;9927;47.792;10.616;2023-02-19T05:12:05;5.00;;;4.60;;
19560;SDS011;9927;47.792;10.616;2023-02-19T05:14:32;5.30;;;4.90;;
19560;SDS011;9927;47.792;10.616;2023-02-19T05:16:59;4.63;;;4.38;;
19560;SDS011;9927;47.792;10.616;2023-02-19T05:19:26;4.88;;;4.57;;
19560;SDS011;9927;47.792;10.616;2023-02-19T05:21:53;5.22;;;4.82;;
19560;SDS011;9927;47.792;10.616;2023-02-19T05:24:21;5.72;;;5.32;;
19560;SDS011;9927;47.792;10.616;2023-02-19T05:26:49;4.88;;;4.57;;
19560;SDS011;9927;47.792;10.616;2023-02-19T05:29:17;5.80;;;5.40;;
19560;SDS011;9927;47.792;10.616;2023-02-19T05:31:44;5.30;;;4.90;;
19560;SDS011;9927;47.792;10.616;2023-02-19T05:34:11;5.68;;;5.28;;
19560;SDS011;9927;47.792;10.616;2023-02-19T05:36:38;5.45;;;5.03;;
19560;SDS011;9927;47.792;10.616;2023-02-19T05:39:06;5.65;;;5.10;;
19560;SDS011;9927;47.792;10.616;2023-02-19T05:41:37;5.50;;;5.00;;
19560;SDS011;9927;47.792;10.616;2023-02-19T05:44:04;5.35;;;4.95;;
19560;SDS011;9927;47.792;10.616;2023-02-19T05:46:31;5.20;;;4.90;;
19560;SDS011;9927;47.792;10.616;2023-02-19T05:48:59;5.22;;;4.88;;
19560;SDS011;9927;47.792;10.616;2023-02-19T05:51:26;5.30;;;4.90;;
19560;SDS011;9927;47.792;10.616;2023-02-19T05:53:54;5.43;;;4.97;;
19560;SDS011;9927;47.792;10.616;2023-02-19T05:56:56;5.30;;;4.87;;
19560;SDS011;9927;47.792;10.616;2023-02-19T05:59:17;5.10;;;4.80;;
19560;SDS011;9927;47.792;10.616;2023-02-19T06:01:46;5.40;;;5.00;;
19560;SDS011;9927;47.792;10.616;2023-02-19T06:04:15;5.00;;;4.70;;
19560;SDS011;9927;47.792;10.616;2023-02-19T06:06:45;5.40;;;5.10;;
19560;SDS011;9927;47.792;10.616;2023-02-19T06:09:13;5.25;;;4.95;;
19560;SDS011;9927;47.792;10.616;2023-02-19T06:11:40;5.13;;;4.82;;
19560;SDS011;9927;47.792;10.616;2023-02-19T06:14:10;5.50;;;5.10;;
19560;SDS011;9927;47.792;10.616;2023-02-19T06:16:39;5.20;;;4.80;;
19560;SDS011;9927;47.792;10.616;2023-02-19T06:19:06;7.37;;;5.17;;
19560;SDS011;9927;47.792;10.616;2023-02-19T06:21:33;5.17;;;4.80;;
19560;SDS011;9927;47.792;10.616;2023-02-19T06:24:07;5.18;;;4.88;;
19560;SDS011;9927;47.792;10.616;2023-02-19T06:26:35;5.60;;;5.10;;
19560;SDS011;9927;47.792;10.616;2023-02-19T06:29:02;5.10;;;4.80;;
19560;SDS011;9927;47.792;10.616;2023-02-19T06:31:29;5.35;;;5.05;;
19560;SDS011;9927;47.792;10.616;2023-02-19T06:33:57;5.50;;;5.20;;
19560;SDS011;9927;47.792;10.616;2023-02-19T06:36:24;5.10;;;4.75;;
19560;SDS011;9927;47.792;10.616;2023-02-19T06:38:51;5.00;;;4.60;;
19560;SDS011;9927;47.792;10.616;2023-02-19T06:41:19;4.68;;;4.38;;
19560;SDS011;9927;47.792;10.616;2023-02-19T06:43:46;4.90;;;4.60;;
19560;SDS011;9927;47.792;10.616;2023-02-19T06:46:13;5.10;;;4.70;;
19560;SDS011;9927;47.792;10.616;2023-02-19T06:48:41;5.95;;;5.45;;
19560;SDS011;9927;47.792;10.616;2023-02-19T06:51:11;5.10;;;4.80;;
19560;SDS011;9927;47.792;10.616;2023-02-19T06:53:39;5.13;;;4.78;;
19560;SDS011;9927;47.792;10.616;2023-02-19T06:56:20;4.57;;;4.28;;
19560;SDS011;9927;47.792;10.616;2023-02-19T06:58:54;5.10;;;4.80;;
19560;SDS011;9927;47.792;10.616;2023-02-19T07:01:23;5.00;;;4.70;;
19560;SDS011;9927;47.792;10.616;2023-02-19T07:03:50;5.30;;;5.00;;
19560;SDS011;9927;47.792;10.616;2023-02-19T07:06:19;5.20;;;4.80;;
19560;SDS011;9927;47.792;10.616;2023-02-19T07:08:50;5.10;;;4.80;;
19560;SDS011;9927;47.792;10.616;2023-02-19T07:11:18;5.00;;;4.70;;
19560;SDS011;9927;47.792;10.616;2023-02-19T07:13:45;5.60;;;4.47;;
19560;SDS011;9927;47.792;10.616;2023-02-19T07:16:13;5.00;;;4.70;;
19560;SDS011;9927;47.792;10.616;2023-02-19T07:18:41;5.15;;;4.85;;
19560;SDS011;9927;47.792;10.616;2023-02-19T07:21:09;4.97;;;4.67;;
19560;SDS011;9927;47.792;10.616;2023-02-19T07:23:38;5.80;;;5.30;;
19560;SDS011;9927;47.792;10.616;2023-02-19T07:26:13;5.07;;;4.78;;
19560;SDS011;9927;47.792;10.616;2023-02-19T07:28:51;5.07;;;4.77;;
19560;SDS011;9927;47.792;10.616;2023-02-19T07:31:19;5.43;;;5.03;;
19560;SDS011;9927;47.792;10.616;2023-02-19T07:33:48;5.00;;;4.70;;
19560;SDS011;9927;47.792;10.616;2023-02-19T07:36:16;5.10;;;4.60;;
19560;SDS011;9927;47.792;10.616;2023-02-19T07:38:44;5.22;;;4.85;;
19560;SDS011;9927;47.792;10.616;2023-02-19T07:41:11;4.75;;;4.55;;
19560;SDS011;9927;47.792;10.616;2023-02-19T07:43:40;5.68;;;5.28;;
19560;SDS011;9927;47.792;10.616;2023-02-19T07:46:08;5.73;;;5.20;;
19560;SDS011;9927;47.792;10.616;2023-02-19T07:48:38;6.60;;;6.10;;
19560;SDS011;9927;47.792;10.616;2023-02-19T07:51:07;6.05;;;5.65;;
19560;SDS011;9927;47.792;10.616;2023-02-19T07:53:38;5.40;;;5.00;;
19560;SDS011;9927;47.792;10.616;2023-02-19T07:56:06;5.60;;;5.30;;
19560;SDS011;9927;47.792;10.616;2023-02-19T07:58:34;5.53;;;5.18;;
19560;SDS011;9927;47.792;10.616;2023-02-19T08:03:36;5.40;;;5.10;;
19560;SDS011;9927;47.792;10.616;2023-02-19T08:06:04;4.78;;;4.57;;
19560;SDS011;9927;47.792;10.616;2023-02-19T08:08:32;4.93;;;4.67;;
19560;SDS011;9927;47.792;10.616;2023-02-19T08:11:00;5.67;;;5.27;;
19560;SDS011;9927;47.792;10.616;2023-02-19T08:13:50;5.40;;;5.10;;
19560;SDS011;9927;47.792;10.616;2023-02-19T08:16:18;9.15;;;4.82;;
19560;SDS011;9927;47.792;10.616;2023-02-19T08:19:02;5.50;;;5.13;;
19560;SDS011;9927;47.792;10.616;2023-02-19T08:21:30;5.00;;;4.78;;
19560;SDS011;9927;47.792;10.616;2023-02-19T08:24:00;7.28;;;4.97;;
19560;SDS011;9927;47.792;10.616;2023-02-19T08:26:27;5.55;;;4.97;;
19560;SDS011;9927;47.792;10.616;2023-02-19T08:28:54;5.68;;;5.28;;
19560;SDS011;9927;47.792;10.616;2023-02-19T08:31:21;5.40;;;5.00;;
19560;SDS011;9927;47.792;10.616;2023-02-19T08:33:48;5.18;;;4.88;;
19560;SDS011;9927;47.792;10.616;2023-02-19T08:36:16;4.82;;;4.53;;
19560;SDS011;9927;47.792;10.616;2023-02-19T08:38:43;4.43;;;4.22;;
19560;SDS011;9927;47.792;10.616;2023-02-19T08:41:11;5.38;;;4.97;;
19560;SDS011;9927;47.792;10.616;2023-02-19T08:43:40;4.72;;;4.43;;
19560;SDS011;9927;47.792;10.616;2023-02-19T08:46:08;5.13;;;4.82;;
19560;SDS011;9927;47.792;10.616;2023-02-19T08:48:37;4.82;;;4.53;;
19560;SDS011;9927;47.792;10.616;2023-02-19T08:51:06;4.88;;;4.57;;
19560;SDS011;9927;47.792;10.616;2023-02-19T08:53:36;4.65;;;4.35;;
19560;SDS011;9927;47.792;10.616;2023-02-19T08:56:08;5.20;;;4.80;;
19560;SDS011;9927;47.792;10.616;2023-02-19T08:58:37;5.10;;;4.80;;
19560;SDS011;9927;47.792;10.616;2023-02-19T09:01:13;5.00;;;4.70;;
19560;SDS011;9927;47.792;10.616;2023-02-19T09:03:42;4.57;;;4.27;;
19560;SDS011;9927;47.792;10.616;2023-02-19T09:06:11;5.05;;;4.75;;
19560;SDS011;9927;47.792;10.616;2023-02-19T09:08:43;4.55;;;4.35;;
19560;SDS011;9927;47.792;10.616;2023-02-19T09:11:11;4.95;;;4.65;;
19560;SDS011;9927;47.792;10.616;2023-02-19T09:13:39;5.65;;;5.25;;
19560;SDS011;9927;47.792;10.616;2023-02-19T09:16:07;4.53;;;4.30;;
19560;SDS011;9927;47.792;10.616;2023-02-19T09:18:34;4.57;;;4.38;;
19560;SDS011;9927;47.792;10.616;2023-02-19T09:21:02;4.75;;;4.53;;
19560;SDS011;9927;47.792;10.616;2023-02-19T09:23:31;4.40;;;4.20;;
19560;SDS011;9927;47.792;10.616;2023-02-19T09:26:00;4.40;;;4.20;;
19560;SDS011;9927;47.792;10.616;2023-02-19T09:28:29;4.68;;;4.40;;
19560;SDS011;9927;47.792;10.616;2023-02-19T09:30:56;4.43;;;4.07;;
19560;SDS011;9927;47.792;10.616;2023-02-19T09:33:29;4.07;;;3.88;;
19560;SDS011;9927;47.792;10.616;2023-02-19T09:35:59;4.55;;;4.25;;
19560;SDS011;9927;47.792;10.616;2023-02-19T09:38:26;3.95;;;3.80;;
19560;SDS011;9927;47.792;10.616;2023-02-19T09:40:58;4.70;;;4.50;;
19560;SDS011;9927;47.792;10.616;2023-02-19T09:43:31;4.00;;;3.80;;
19560;SDS011;9927;47.792;10.616;2023-02-19T09:46:03;4.38;;;4.18;;
19560;SDS011;9927;47.792;10.616;2023-02-19T09:48:41;4.13;;;3.92;;
19560;SDS011;9927;47.792;10.616;2023-02-19T09:51:08;4.40;;;4.20;;
19560;SDS011;9927;47.792;10.616;2023-02-19T09:53:41;3.78;;;3.67;;
19560;SDS011;9927;47.792;10.616;2023-02-19T09:56:12;4.03;;;3.83;;
19560;SDS011;9927;47.792;10.616;2023-02-19T09:58:46;3.95;;;3.75;;
19560;SDS011;9927;47.792;10.616;2023-02-19T10:01:18;5.38;;;5.00;;
19560;SDS011;9927;47.792;10.616;2023-02-19T10:03:47;5.20;;;4.90;;
19560;SDS011;9927;47.792;10.616;2023-02-19T10:08:42;4.07;;;3.88;;
19560;SDS011;9927;47.792;10.616;2023-02-19T10:11:12;4.20;;;4.00;;
19560;SDS011;9927;47.792;10.616;2023-02-19T10:13:48;3.70;;;3.60;;
19560;SDS011;9927;47.792;10.616;2023-02-19T10:16:38;3.70;;;3.60;;
19560;SDS011;9927;47.792;10.616;2023-02-19T10:19:11;4.22;;;4.03;;
19560;SDS011;9927;47.792;10.616;2023-02-19T10:21:39;4.32;;;4.03;;
19560;SDS011;9927;47.792;10.616;2023-02-19T10:24:07;4.10;;;3.90;;
19560;SDS011;9927;47.792;10.616;2023-02-19T10:26:42;4.47;;;4.28;;
19560;SDS011;9927;47.792;10.616;2023-02-19T10:29:09;4.43;;;4.15;;
19560;SDS011;9927;47.792;10.616;2023-02-19T10:31:37;3.90;;;3.70;;
19560;SDS011;9927;47.792;10.616;2023-02-19T10:34:04;3.80;;;3.60;;
19560;SDS011;9927;47.792;10.616;2023-02-19T10:36:48;3.60;;;3.50;;
19560;SDS011;9927;47.792;10.616;2023-02-19T10:41:50;3.85;;;3.65;;
19560;SDS011;9927;47.792;10.616;2023-02-19T10:44:28;4.38;;;4.18;;
19560;SDS011;9927;47.792;10.616;2023-02-19T10:47:08;3.67;;;3.55;;
19560;SDS011;9927;47.792;10.616;2023-02-19T10:49:43;4.00;;;3.80;;
19560;SDS011;9927;47.792;10.616;2023-02-19T10:52:15;3.83;;;3.72;;
19560;SDS011;9927;47.792;10.616;2023-02-19T10:54:56;3.40;;;3.30;;
19560;SDS011;9927;47.792;10.616;2023-02-19T10:57:39;3.95;;;3.75;;
19560;SDS011;9927;47.792;10.616;2023-02-19T11:05:49;3.70;;;3.50;;
19560;SDS011;9927;47.792;10.616;2023-02-19T11:08:27;3.50;;;3.40;;
19560;SDS011;9927;47.792;10.616;2023-02-19T11:10:55;3.50;;;3.40;;
19560;SDS011;9927;47.792;10.616;2023-02-19T11:13:27;3.72;;;3.60;;
19560;SDS011;9927;47.792;10.616;2023-02-19T11:15:57;3.30;;;3.20;;
19560;SDS011;9927;47.792;10.616;2023-02-19T11:18:26;3.25;;;3.15;;
19560;SDS011;9927;47.792;10.616;2023-02-19T11:20:58;3.33;;;3.22;;
19560;SDS011;9927;47.792;10.616;2023-02-19T11:23:30;3.95;;;3.75;;
19560;SDS011;9927;47.792;10.616;2023-02-19T11:26:17;3.30;;;3.20;;
19560;SDS011;9927;47.792;10.616;2023-02-19T11:28:57;3.50;;;3.40;;
19560;SDS011;9927;47.792;10.616;2023-02-19T11:31:26;3.60;;;3.50;;
19560;SDS011;9927;47.792;10.616;2023-02-19T11:36:40;2.95;;;2.90;;
19560;SDS011;9927;47.792;10.616;2023-02-19T11:44:57;3.45;;;3.35;;
19560;SDS011;9927;47.792;10.616;2023-02-19T11:56:13;3.50;;;3.30;;
19560;SDS011;9927;47.792;10.616;2023-02-19T11:59:02;3.25;;;3.15;;
19560;SDS011;9927;47.792;10.616;2023-02-19T12:04:53;2.80;;;2.70;;
19560;SDS011;9927;47.792;10.616;2023-02-19T12:07:58;3.10;;;3.00;;
19560;SDS011;9927;47.792;10.616;2023-02-19T12:16:37;3.10;;;3.00;;
19560;SDS011;9927;47.792;10.616;2023-02-19T12:22:03;3.17;;;3.08;;
19560;SDS011;9927;47.792;10.616;2023-02-19T12:28:02;2.65;;;2.63;;
19560;SDS011;9927;47.792;10.616;2023-02-19T12:34:03;3.20;;;3.00;;
19560;SDS011;9927;47.792;10.616;2023-02-19T12:42:23;2.50;;;2.50;;
19560;SDS011;9927;47.792;10.616;2023-02-19T12:45:03;2.40;;;2.40;;
19560;SDS011;9927;47.792;10.616;2023-02-19T12:48:11;2.60;;;2.60;;
19560;SDS011;9927;47.792;10.616;2023-02-19T12:50:40;2.72;;;2.55;;
19560;SDS011;9927;47.792;10.616;2023-02-19T12:55:59;2.30;;;2.30;;
19560;SDS011;9927;47.792;10.616;2023-02-19T12:58:36;2.60;;;2.50;;
19560;SDS011;9927;47.792;10.616;2023-02-19T13:01:12;2.53;;;2.53;;
19560;SDS011;9927;47.792;10.616;2023-02-19T13:03:52;2.65;;;2.65;;
19560;SDS011;9927;47.792;10.616;2023-02-19T13:06:43;2.53;;;2.50;;
19560;SDS011;9927;47.792;10.616;2023-02-19T13:09:23;3.08;;;2.97;;
19560;SDS011;9927;47.792;10.616;2023-02-19T13:12:25;3.60;;;2.60;;
19560;SDS011;9927;47.792;10.616;2023-02-19T13:14:57;2.60;;;2.50;;
19560;SDS011;9927;47.792;10.616;2023-02-19T13:20:09;2.70;;;2.70;;
19560;SDS011;9927;47.792;10.616;2023-02-19T13:37:20;2.60;;;2.60;;
19560;SDS011;9927;47.792;10.616;2023-02-19T13:39:50;2.38;;;2.30;;
19560;SDS011;9927;47.792;10.616;2023-02-19T13:42:23;3.40;;;3.30;;
19560;SDS011;9927;47.792;10.616;2023-02-19T13:44:51;2.55;;;2.55;;
19560;SDS011;9927;47.792;10.616;2023-02-19T13:47:45;2.80;;;2.78;;
19560;SDS011;9927;47.792;10.616;2023-02-19T13:50:21;2.70;;;2.70;;
19560;SDS011;9927;47.792;10.616;2023-02-19T13:52:51;2.38;;;2.38;;
19560;SDS011;9927;47.792;10.616;2023-02-19T14:00:58;2.92;;;2.83;;
19560;SDS011;9927;47.792;10.616;2023-02-19T14:06:04;2.90;;;2.80;;
19560;SDS011;9927;47.792;10.616;2023-02-19T14:11:16;3.03;;;2.83;;
19560;SDS011;9927;47.792;10.616;2023-02-19T14:19:16;2.70;;;2.70;;
19560;SDS011;9927;47.792;10.616;2023-02-19T14:28:05;2.60;;;2.50;;
19560;SDS011;9927;47.792;10.616;2023-02-19T14:30:44;2.40;;;2.20;;
19560;SDS011;9927;47.792;10.616;2023-02-19T14:33:14;3.83;;;3.63;;
19560;SDS011;9927;47.792;10.616;2023-02-19T14:35:44;2.50;;;2.50;;
19560;SDS011;9927;47.792;10.616;2023-02-19T14:38:20;2.30;;;2.30;;
19560;SDS011;9927;47.792;10.616;2023-02-19T14:41:02;2.60;;;2.60;;
19560;SDS011;9927;47.792;10.616;2023-02-19T14:43:30;2.40;;;2.40;;
19560;SDS011;9927;47.792;10.616;2023-02-19T14:46:00;2.60;;;2.53;;
19560;SDS011;9927;47.792;10.616;2023-02-19T14:48:33;3.13;;;2.50;;
19560;SDS011;9927;47.792;10.616;2023-02-19T14:51:15;2.60;;;2.60;;
19560;SDS011;9927;47.792;10.616;2023-02-19T14:53:57;2.35;;;2.35;;
19560;SDS011;9927;47.792;10.616;2023-02-19T14:56:30;2.35;;;2.35;;
19560;SDS011;9927;47.792;10.616;2023-02-19T15:01:39;2.80;;;2.70;;
19560;SDS011;9927;47.792;10.616;2023-02-19T15:04:17;2.80;;;2.65;;
19560;SDS011;9927;47.792;10.616;2023-02-19T15:06:48;2.92;;;2.83;;
19560;SDS011;9927;47.792;10.616;2023-02-19T15:09:18;2.70;;;2.60;;
19560;SDS011;9927;47.792;10.616;2023-02-19T15:11:47;2.50;;;2.50;;
19560;SDS011;9927;47.792;10.616;2023-02-19T15:14:18;2.97;;;2.88;;
19560;SDS011;9927;47.792;10.616;2023-02-19T15:16:48;3.03;;;2.92;;
19560;SDS011;9927;47.792;10.616;2023-02-19T15:19:20;3.28;;;3.13;;
19560;SDS011;9927;47.792;10.616;2023-02-19T15:21:48;2.60;;;2.60;;
19560;SDS011;9927;47.792;10.616;2023-02-19T15:24:16;3.22;;;3.13;;
19560;SDS011;9927;47.792;10.616;2023-02-19T15:26:48;2.83;;;2.83;;
19560;SDS011;9927;47.792;10.616;2023-02-19T15:29:18;3.65;;;3.45;;
19560;SDS011;9927;47.792;10.616;2023-02-19T15:31:53;2.67;;;2.60;;
19560;SDS011;9927;47.792;10.616;2023-02-19T15:36:54;2.42;;;2.42;;
19560;SDS011;9927;47.792;10.616;2023-02-19T15:39:33;3.70;;;3.50;;
19560;SDS011;9927;47.792;10.616;2023-02-19T15:42:06;3.92;;;3.72;;
19560;SDS011;9927;47.792;10.616;2023-02-19T15:44:38;3.15;;;3.05;;
19560;SDS011;9927;47.792;10.616;2023-02-19T15:49:43;3.00;;;2.90;;
19560;SDS011;9927;47.792;10.616;2023-02-19T15:52:19;2.30;;;2.30;;
19560;SDS011;9927;47.792;10.616;2023-02-19T15:54:56;2.90;;;2.80;;
19560;SDS011;9927;47.792;10.616;2023-02-19T15:57:34;2.83;;;2.72;;
19560;SDS011;9927;47.792;10.616;2023-02-19T16:00:08;3.15;;;3.05;;
19560;SDS011;9927;47.792;10.616;2023-02-19T16:02:42;2.90;;;2.80;;
19560;SDS011;9927;47.792;10.616;2023-02-19T16:05:14;2.72;;;2.70;;
19560;SDS011;9927;47.792;10.616;2023-02-19T16:08:05;2.85;;;2.75;;
19560;SDS011;9927;47.792;10.616;2023-02-19T16:10:50;2.80;;;2.60;;
19560;SDS011;9927;47.792;10.616;2023-02-19T16:13:27;2.53;;;2.53;;
19560;SDS011;9927;47.792;10.616;2023-02-19T16:18:47;2.63;;;2.55;;
19560;SDS011;9927;47.792;10.616;2023-02-19T16:21:19;2.95;;;2.78;;
19560;SDS011;9927;47.792;10.616;2023-02-19T16:23:56;3.03;;;2.90;;
19560;SDS011;9927;47.792;10.616;2023-02-19T16:26:43;3.10;;;3.00;;
19560;SDS011;9927;47.792;10.616;2023-02-19T16:29:21;3.35;;;3.25;;
19560;SDS011;9927;47.792;10.616;2023-02-19T16:34:30;3.05;;;2.95;;
19560;SDS011;9927;47.792;10.616;2023-02-19T16:37:00;2.80;;;2.70;;
19560;SDS011;9927;47.792;10.616;2023-02-19T16:39:28;3.00;;;2.90;;
19560;SDS011;9927;47.792;10.616;2023-02-19T16:47:01;3.00;;;2.90;;
19560;SDS011;9927;47.792;10.616;2023-02-19T16:49:30;2.80;;;2.78;;
19560;SDS011;9927;47.792;10.616;2023-02-19T16:51:58;2.83;;;2.72;;
19560;SDS011;9927;47.792;10.616;2023-02-19T16:54:29;3.20;;;3.10;;
19560;SDS011;9927;47.792;10.616;2023-02-19T16:56:56;2.83;;;2.72;;
19560;SDS011;9927;47.792;10.616;2023-02-19T16:59:23;3.10;;;3.00;;
19560;SDS011;9927;47.792;10.616;2023-02-19T17:01:51;2.90;;;2.80;;
19560;SDS011;9927;47.792;10.616;2023-02-19T17:04:18;2.95;;;2.85;;
19560;SDS011;9927;47.792;10.616;2023-02-19T17:06:45;3.45;;;3.35;;
19560;SDS011;9927;47.792;10.616;2023-02-19T17:09:13;3.30;;;3.20;;
19560;SDS011;9927;47.792;10.616;2023-02-19T17:11:40;3.78;;;3.58;;
19560;SDS011;9927;47.792;10.616;2023-02-19T17:14:07;3.40;;;3.30;;
19560;SDS011;9927;47.792;10.616;2023-02-19T17:16:34;3.53;;;3.38;;
19560;SDS011;9927;47.792;10.616;2023-02-19T17:19:13;3.97;;;3.67;;
19560;SDS011;9927;47.792;10.616;2023-02-19T17:21:44;3.55;;;3.45;;
19560;SDS011;9927;47.792;10.616;2023-02-19T17:24:12;3.47;;;3.38;;
19560;SDS011;9927;47.792;10.616;2023-02-19T17:26:39;3.75;;;3.55;;
19560;SDS011;9927;47.792;10.616;2023-02-19T17:29:10;3.25;;;3.15;;
19560;SDS011;9927;47.792;10.616;2023-02-19T17:31:39;2.97;;;2.88;;
19560;SDS011;9927;47.792;10.616;2023-02-19T17:34:07;3.10;;;3.00;;
19560;SDS011;9927;47.792;10.616;2023-02-19T17:36:34;3.88;;;3.67;;
19560;SDS011;9927;47.792;10.616;2023-02-19T17:39:04;3.10;;;3.00;;
19560;SDS011;9927;47.792;10.616;2023-02-19T17:41:37;3.35;;;3.25;;
19560;SDS011;9927;47.792;10.616;2023-02-19T17:44:04;3.15;;;3.05;;
19560;SDS011;9927;47.792;10.616;2023-02-19T17:46:31;3.35;;;3.25;;
19560;SDS011;9927;47.792;10.616;2023-02-19T17:49:00;2.95;;;2.85;;
19560;SDS011;9927;47.792;10.616;2023-02-19T17:51:27;3.50;;;3.30;;
19560;SDS011;9927;47.792;10.616;2023-02-19T17:53:54;3.30;;;3.20;;
19560;SDS011;9927;47.792;10.616;2023-02-19T17:56:23;3.00;;;2.90;;
19560;SDS011;9927;47.792;10.616;2023-02-19T17:58:52;3.20;;;3.10;;
19560;SDS011;9927;47.792;10.616;2023-02-19T18:01:20;3.78;;;3.58;;
19560;SDS011;9927;47.792;10.616;2023-02-19T18:03:47;3.47;;;3.38;;
19560;SDS011;9927;47.792;10.616;2023-02-19T18:06:15;3.30;;;3.20;;
19560;SDS011;9927;47.792;10.616;2023-02-19T18:08:49;3.80;;;3.70;;
19560;SDS011;9927;47.792;10.616;2023-02-19T18:11:18;3.80;;;3.70;;
19560;SDS011;9927;47.792;10.616;2023-02-19T18:13:48;3.53;;;3.42;;
19560;SDS011;9927;47.792;10.616;2023-02-19T18:16:16;3.50;;;3.40;;
19560;SDS011;9927;47.792;10.616;2023-02-19T18:18:43;3.45;;;3.28;;
19560;SDS011;9927;47.792;10.616;2023-02-19T18:21:11;3.22;;;3.13;;
19560;SDS011;9927;47.792;10.616;2023-02-19T18:23:39;3.45;;;3.35;;
19560;SDS011;9927;47.792;10.616;2023-02-19T18:26:08;3.50;;;3.40;;
19560;SDS011;9927;47.792;10.616;2023-02-19T18:28:36;3.40;;;3.30;;
19560;SDS011;9927;47.792;10.616;2023-02-19T18:31:04;3.67;;;3.40;;
19560;SDS011;9927;47.792;10.616;2023-02-19T18:33:32;3.63;;;3.42;;
19560;SDS011;9927;47.792;10.616;2023-02-19T18:36:00;3.50;;;3.40;;
19560;SDS011;9927;47.792;10.616;2023-02-19T18:38:28;3.97;;;3.78;;
19560;SDS011;9927;47.792;10.616;2023-02-19T18:40:55;3.40;;;3.30;;
19560;SDS011;9927;47.792;10.616;2023-02-19T18:43:24;4.20;;;4.00;;
19560;SDS011;9927;47.792;10.616;2023-02-19T18:45:52;3.80;;;3.70;;
19560;SDS011;9927;47.792;10.616;2023-02-19T18:48:19;4.07;;;3.88;;
19560;SDS011;9927;47.792;10.616;2023-02-19T18:50:46;8.63;;;4.00;;
19560;SDS011;9927;47.792;10.616;2023-02-19T18:53:13;4.20;;;3.90;;
19560;SDS011;9927;47.792;10.616;2023-02-19T18:55:41;4.75;;;4.55;;
19560;SDS011;9927;47.792;10.616;2023-02-19T18:58:08;3.83;;;3.72;;
19560;SDS011;9927;47.792;10.616;2023-02-19T19:00:35;3.83;;;3.53;;
19560;SDS011;9927;47.792;10.616;2023-02-19T19:03:02;3.78;;;3.60;;
19560;SDS011;9927;47.792;10.616;2023-02-19T19:05:30;4.47;;;4.28;;
19560;SDS011;9927;47.792;10.616;2023-02-19T19:07:58;4.07;;;3.88;;
19560;SDS011;9927;47.792;10.616;2023-02-19T19:10:27;4.50;;;4.10;;
19560;SDS011;9927;47.792;10.616;2023-02-19T19:12:55;4.00;;;3.80;;
19560;SDS011;9927;47.792;10.616;2023-02-19T19:15:24;4.43;;;4.22;;
19560;SDS011;9927;47.792;10.616;2023-02-19T19:17:51;4.20;;;3.90;;
19560;SDS011;9927;47.792;10.616;2023-02-19T19:20:19;3.88;;;3.70;;
19560;SDS011;9927;47.792;10.616;2023-02-19T19:22:49;4.10;;;3.90;;
19560;SDS011;9927;47.792;10.616;2023-02-19T19:25:17;4.47;;;4.07;;
19560;SDS011;9927;47.792;10.616;2023-02-19T19:27:45;5.30;;;4.27;;
19560;SDS011;9927;47.792;10.616;2023-02-19T19:30:13;4.68;;;4.30;;
19560;SDS011;9927;47.792;10.616;2023-02-19T19:32:40;4.50;;;4.20;;
19560;SDS011;9927;47.792;10.616;2023-02-19T19:35:08;4.68;;;4.38;;
19560;SDS011;9927;47.792;10.616;2023-02-19T19:37:35;4.63;;;4.23;;
19560;SDS011;9927;47.792;10.616;2023-02-19T19:40:02;4.28;;;3.97;;
19560;SDS011;9927;47.792;10.616;2023-02-19T19:42:30;4.65;;;4.35;;
19560;SDS011;9927;47.792;10.616;2023-02-19T19:44:57;4.30;;;4.00;;
19560;SDS011;9927;47.792;10.616;2023-02-19T19:47:24;4.63;;;4.23;;
19560;SDS011;9927;47.792;10.616;2023-02-19T19:49:52;4.50;;;4.20;;
19560;SDS011;9927;47.792;10.616;2023-02-19T19:52:19;4.20;;;4.00;;
19560;SDS011;9927;47.792;10.616;2023-02-19T19:54:47;4.13;;;3.83;;
19560;SDS011;9927;47.792;10.616;2023-02-19T19:57:19;4.83;;;4.53;;
19560;SDS011;9927;47.792;10.616;2023-02-19T19:59:47;4.80;;;4.50;;
19560;SDS011;9927;47.792;10.616;2023-02-19T20:02:16;4.30;;;4.00;;
19560;SDS011;9927;47.792;10.616;2023-02-19T20:04:44;5.47;;;4.47;;
19560;SDS011;9927;47.792;10.616;2023-02-19T20:07:11;4.30;;;4.10;;
19560;SDS011;9927;47.792;10.616;2023-02-19T20:09:39;5.22;;;4.75;;
19560;SDS011;9927;47.792;10.616;2023-02-19T20:12:06;4.22;;;4.03;;
19560;SDS011;9927;47.792;10.616;2023-02-19T20:14:34;4.38;;;4.18;;
19560;SDS011;9927;47.792;10.616;2023-02-19T20:17:01;4.77;;;4.47;;
19560;SDS011;9927;47.792;10.616;2023-02-19T20:19:28;4.50;;;4.10;;
19560;SDS011;9927;47.792;10.616;2023-02-19T20:21:55;4.27;;;4.03;;
19560;SDS011;9927;47.792;10.616;2023-02-19T20:24:24;3.90;;;3.78;;
19560;SDS011;9927;47.792;10.616;2023-02-19T20:26:55;4.80;;;4.40;;
19560;SDS011;9927;47.792;10.616;2023-02-19T20:29:25;4.50;;;4.20;;
19560;SDS011;9927;47.792;10.616;2023-02-19T20:31:54;3.90;;;3.70;;
19560;SDS011;9927;47.792;10.616;2023-02-19T20:34:25;4.30;;;4.00;;
19560;SDS011;9927;47.792;10.616;2023-02-19T20:36:52;4.40;;;4.10;;
19560;SDS011;9927;47.792;10.616;2023-02-19T20:39:20;5.47;;;4.77;;
19560;SDS011;9927;47.792;10.616;2023-02-19T20:41:48;4.60;;;4.40;;
19560;SDS011;9927;47.792;10.616;2023-02-19T20:44:17;4.90;;;4.60;;
19560;SDS011;9927;47.792;10.616;2023-02-19T20:46:48;4.32;;;4.10;;
19560;SDS011;9927;47.792;10.616;2023-02-19T20:49:17;4.30;;;4.05;;
19560;SDS011;9927;47.792;10.616;2023-02-19T20:51:46;4.28;;;4.07;;
19560;SDS011;9927;47.792;10.616;2023-02-19T20:54:21;4.35;;;4.05;;
19560;SDS011;9927;47.792;10.616;2023-02-19T20:56:51;4.77;;;4.40;;
19560;SDS011;9927;47.792;10.616;2023-02-19T20:59:21;4.70;;;4.30;;
19560;SDS011;9927;47.792;10.616;2023-02-19T21:01:50;5.40;;;4.93;;
19560;SDS011;9927;47.792;10.616;2023-02-19T21:04:17;4.80;;;4.40;;
19560;SDS011;9927;47.792;10.616;2023-02-19T21:06:45;5.00;;;4.70;;
19560;SDS011;9927;47.792;10.616;2023-02-19T21:09:12;5.83;;;4.70;;